PABE/BET METAR and TAF weather

Enter ICAO airport designator
Station Type Date Time Source
PABE METAR 2020/03/29 10:53 UTC NOAA

PABE 291053Z 34017KT 10SM CLR M17/M21 A3013 RMK AO2 SLP205 T11671211 $


Station Type Date Time Source
PABE Decoded METAR 2020/03/29 10:53 UTC NOAA

BETHEL AIRPORT, AK, United States (PABE) 60-47N 161-50W 46M
Mar 29, 2020 - 06:53 AM EDT / 2020.03.29 1053 UTC
Wind: from the NNW (340 degrees) at 20 MPH (17 KT):0
Visibility: 10 mile(s):0
Sky conditions: clear
Temperature: 1.9 F (-16.7 C)
Windchill: -20 F (-29 C):2
Dew Point: -6.0 F (-21.1 C)
Relative Humidity: 68%
Pressure (altimeter): 30.13 in. Hg (1020 hPa)
ob: PABE 291053Z 34017KT 10SM CLR M17/M21 A3013 RMK AO2 SLP205 T11671211
cycle: 11

Station Type Date Time Source
PABE TAF 2020/03/29 12:30 UTC NOAA

TAF PABE 291128Z 2912/3012 35014KT P6SM FEW090
FM300300 03011KT P6SM SKC

Example: see airport list